sensor_id;sensor_type;location;lat;lon;timestamp;P1;durP1;ratioP1;P2;durP2;ratioP2
4122;SDS011;2075;51.062;6.920;2022-12-18T00:02:07;22.27;;;8.30;;
4122;SDS011;2075;51.062;6.920;2022-12-18T00:04:55;13.63;;;6.90;;
4122;SDS011;2075;51.062;6.920;2022-12-18T00:07:42;20.57;;;8.20;;
4122;SDS011;2075;51.062;6.920;2022-12-18T00:10:28;15.67;;;8.13;;
4122;SDS011;2075;51.062;6.920;2022-12-18T00:13:14;18.50;;;8.53;;
4122;SDS011;2075;51.062;6.920;2022-12-18T00:16:02;22.20;;;7.67;;
4122;SDS011;2075;51.062;6.920;2022-12-18T00:18:49;18.63;;;7.70;;
4122;SDS011;2075;51.062;6.920;2022-12-18T00:21:35;13.00;;;7.40;;
4122;SDS011;2075;51.062;6.920;2022-12-18T00:24:23;14.90;;;7.57;;
4122;SDS011;2075;51.062;6.920;2022-12-18T00:27:08;16.83;;;6.90;;
4122;SDS011;2075;51.062;6.920;2022-12-18T00:29:53;13.50;;;7.60;;
4122;SDS011;2075;51.062;6.920;2022-12-18T00:32:40;11.33;;;6.33;;
4122;SDS011;2075;51.062;6.920;2022-12-18T00:35:26;16.03;;;7.10;;
4122;SDS011;2075;51.062;6.920;2022-12-18T00:38:11;11.27;;;5.97;;
4122;SDS011;2075;51.062;6.920;2022-12-18T00:40:56;12.80;;;6.50;;
4122;SDS011;2075;51.062;6.920;2022-12-18T00:43:42;17.63;;;7.53;;
4122;SDS011;2075;51.062;6.920;2022-12-18T00:46:26;11.83;;;6.63;;
4122;SDS011;2075;51.062;6.920;2022-12-18T00:49:13;14.47;;;7.40;;
4122;SDS011;2075;51.062;6.920;2022-12-18T00:51:59;14.87;;;7.00;;
4122;SDS011;2075;51.062;6.920;2022-12-18T00:54:44;13.60;;;8.03;;
4122;SDS011;2075;51.062;6.920;2022-12-18T00:57:30;17.13;;;7.67;;
4122;SDS011;2075;51.062;6.920;2022-12-18T01:00:16;14.27;;;7.43;;
4122;SDS011;2075;51.062;6.920;2022-12-18T01:03:02;19.00;;;7.73;;
4122;SDS011;2075;51.062;6.920;2022-12-18T01:05:49;12.17;;;7.47;;
4122;SDS011;2075;51.062;6.920;2022-12-18T01:08:36;13.40;;;7.70;;
4122;SDS011;2075;51.062;6.920;2022-12-18T01:11:21;20.47;;;8.47;;
4122;SDS011;2075;51.062;6.920;2022-12-18T01:14:07;16.27;;;8.37;;
4122;SDS011;2075;51.062;6.920;2022-12-18T01:16:55;19.53;;;8.60;;
4122;SDS011;2075;51.062;6.920;2022-12-18T01:19:40;19.73;;;9.47;;
4122;SDS011;2075;51.062;6.920;2022-12-18T01:22:28;14.30;;;7.87;;
4122;SDS011;2075;51.062;6.920;2022-12-18T01:25:14;17.73;;;7.30;;
4122;SDS011;2075;51.062;6.920;2022-12-18T01:28:00;14.60;;;7.80;;
4122;SDS011;2075;51.062;6.920;2022-12-18T01:30:46;15.53;;;7.43;;
4122;SDS011;2075;51.062;6.920;2022-12-18T01:33:31;14.27;;;7.63;;
4122;SDS011;2075;51.062;6.920;2022-12-18T01:36:17;15.63;;;7.30;;
4122;SDS011;2075;51.062;6.920;2022-12-18T01:39:06;15.10;;;7.73;;
4122;SDS011;2075;51.062;6.920;2022-12-18T01:41:55;13.00;;;6.70;;
4122;SDS011;2075;51.062;6.920;2022-12-18T01:44:54;16.53;;;7.40;;
4122;SDS011;2075;51.062;6.920;2022-12-18T01:47:45;11.10;;;6.57;;
4122;SDS011;2075;51.062;6.920;2022-12-18T01:50:34;14.90;;;7.53;;
4122;SDS011;2075;51.062;6.920;2022-12-18T01:53:22;10.83;;;5.90;;
4122;SDS011;2075;51.062;6.920;2022-12-18T01:56:11;11.13;;;6.80;;
4122;SDS011;2075;51.062;6.920;2022-12-18T01:59:00;13.70;;;7.53;;
4122;SDS011;2075;51.062;6.920;2022-12-18T02:01:49;14.77;;;7.03;;
4122;SDS011;2075;51.062;6.920;2022-12-18T02:04:35;12.70;;;6.97;;
4122;SDS011;2075;51.062;6.920;2022-12-18T02:07:23;14.97;;;7.87;;
4122;SDS011;2075;51.062;6.920;2022-12-18T02:10:13;17.50;;;7.10;;
4122;SDS011;2075;51.062;6.920;2022-12-18T02:13:07;16.77;;;7.63;;
4122;SDS011;2075;51.062;6.920;2022-12-18T02:16:00;13.80;;;7.80;;
4122;SDS011;2075;51.062;6.920;2022-12-18T02:18:51;14.57;;;7.63;;
4122;SDS011;2075;51.062;6.920;2022-12-18T02:21:45;13.60;;;5.93;;
4122;SDS011;2075;51.062;6.920;2022-12-18T02:24:38;16.30;;;7.30;;
4122;SDS011;2075;51.062;6.920;2022-12-18T02:27:37;16.63;;;6.47;;
4122;SDS011;2075;51.062;6.920;2022-12-18T02:30:26;15.53;;;7.07;;
4122;SDS011;2075;51.062;6.920;2022-12-18T02:33:15;8.63;;;5.63;;
4122;SDS011;2075;51.062;6.920;2022-12-18T02:36:04;11.73;;;6.73;;
4122;SDS011;2075;51.062;6.920;2022-12-18T02:38:51;14.57;;;6.90;;
4122;SDS011;2075;51.062;6.920;2022-12-18T02:41:39;14.40;;;6.80;;
4122;SDS011;2075;51.062;6.920;2022-12-18T02:44:26;12.30;;;6.93;;
4122;SDS011;2075;51.062;6.920;2022-12-18T02:47:12;11.00;;;6.10;;
4122;SDS011;2075;51.062;6.920;2022-12-18T02:50:02;23.33;;;7.77;;
4122;SDS011;2075;51.062;6.920;2022-12-18T02:52:55;13.47;;;6.80;;
4122;SDS011;2075;51.062;6.920;2022-12-18T02:55:53;15.30;;;6.90;;
4122;SDS011;2075;51.062;6.920;2022-12-18T02:58:47;12.53;;;6.70;;
4122;SDS011;2075;51.062;6.920;2022-12-18T03:02:11;14.13;;;7.03;;
4122;SDS011;2075;51.062;6.920;2022-12-18T03:05:07;11.33;;;6.50;;
4122;SDS011;2075;51.062;6.920;2022-12-18T03:07:59;25.57;;;7.40;;
4122;SDS011;2075;51.062;6.920;2022-12-18T03:10:54;14.27;;;8.07;;
4122;SDS011;2075;51.062;6.920;2022-12-18T03:13:44;13.37;;;7.07;;
4122;SDS011;2075;51.062;6.920;2022-12-18T03:16:34;18.70;;;8.10;;
4122;SDS011;2075;51.062;6.920;2022-12-18T03:19:24;12.80;;;7.17;;
4122;SDS011;2075;51.062;6.920;2022-12-18T03:22:16;16.83;;;6.80;;
4122;SDS011;2075;51.062;6.920;2022-12-18T03:25:07;12.03;;;7.07;;
4122;SDS011;2075;51.062;6.920;2022-12-18T03:27:56;15.17;;;7.10;;
4122;SDS011;2075;51.062;6.920;2022-12-18T03:30:45;17.97;;;7.50;;
4122;SDS011;2075;51.062;6.920;2022-12-18T03:33:34;14.77;;;7.50;;
4122;SDS011;2075;51.062;6.920;2022-12-18T03:36:25;12.97;;;6.77;;
4122;SDS011;2075;51.062;6.920;2022-12-18T03:39:14;12.07;;;6.17;;
4122;SDS011;2075;51.062;6.920;2022-12-18T03:42:07;11.30;;;7.20;;
4122;SDS011;2075;51.062;6.920;2022-12-18T03:45:07;13.80;;;7.03;;
4122;SDS011;2075;51.062;6.920;2022-12-18T03:48:00;15.97;;;7.67;;
4122;SDS011;2075;51.062;6.920;2022-12-18T03:50:56;14.50;;;6.80;;
4122;SDS011;2075;51.062;6.920;2022-12-18T03:53:46;12.37;;;6.90;;
4122;SDS011;2075;51.062;6.920;2022-12-18T03:56:40;11.80;;;7.00;;
4122;SDS011;2075;51.062;6.920;2022-12-18T03:59:29;10.47;;;6.10;;
4122;SDS011;2075;51.062;6.920;2022-12-18T04:02:17;15.80;;;6.57;;
4122;SDS011;2075;51.062;6.920;2022-12-18T04:05:05;13.47;;;7.10;;
4122;SDS011;2075;51.062;6.920;2022-12-18T04:07:55;16.43;;;6.53;;
4122;SDS011;2075;51.062;6.920;2022-12-18T04:10:43;10.03;;;6.20;;
4122;SDS011;2075;51.062;6.920;2022-12-18T04:13:29;14.83;;;6.10;;
4122;SDS011;2075;51.062;6.920;2022-12-18T04:16:19;15.33;;;6.60;;
4122;SDS011;2075;51.062;6.920;2022-12-18T04:19:08;12.20;;;6.60;;
4122;SDS011;2075;51.062;6.920;2022-12-18T04:21:57;12.67;;;6.20;;
4122;SDS011;2075;51.062;6.920;2022-12-18T04:24:43;12.00;;;6.83;;
4122;SDS011;2075;51.062;6.920;2022-12-18T04:27:38;14.50;;;6.20;;
4122;SDS011;2075;51.062;6.920;2022-12-18T04:30:23;12.13;;;6.50;;
4122;SDS011;2075;51.062;6.920;2022-12-18T04:33:09;12.67;;;6.07;;
4122;SDS011;2075;51.062;6.920;2022-12-18T04:35:56;10.00;;;5.87;;
4122;SDS011;2075;51.062;6.920;2022-12-18T04:38:42;13.30;;;5.93;;
4122;SDS011;2075;51.062;6.920;2022-12-18T04:41:31;10.23;;;5.83;;
4122;SDS011;2075;51.062;6.920;2022-12-18T04:44:18;13.70;;;6.27;;
4122;SDS011;2075;51.062;6.920;2022-12-18T04:47:04;12.17;;;6.80;;
4122;SDS011;2075;51.062;6.920;2022-12-18T04:49:49;15.67;;;6.50;;
4122;SDS011;2075;51.062;6.920;2022-12-18T04:52:35;11.10;;;6.57;;
4122;SDS011;2075;51.062;6.920;2022-12-18T04:55:20;13.70;;;6.67;;
4122;SDS011;2075;51.062;6.920;2022-12-18T04:58:09;10.70;;;6.70;;
4122;SDS011;2075;51.062;6.920;2022-12-18T05:00:55;14.67;;;6.50;;
4122;SDS011;2075;51.062;6.920;2022-12-18T05:03:41;12.17;;;5.73;;
4122;SDS011;2075;51.062;6.920;2022-12-18T05:06:26;12.87;;;6.60;;
4122;SDS011;2075;51.062;6.920;2022-12-18T05:09:12;11.63;;;6.30;;
4122;SDS011;2075;51.062;6.920;2022-12-18T05:11:57;14.20;;;6.80;;
4122;SDS011;2075;51.062;6.920;2022-12-18T05:14:43;13.17;;;5.33;;
4122;SDS011;2075;51.062;6.920;2022-12-18T05:17:29;11.40;;;6.57;;
4122;SDS011;2075;51.062;6.920;2022-12-18T05:20:15;16.37;;;6.90;;
4122;SDS011;2075;51.062;6.920;2022-12-18T05:23:02;12.07;;;6.40;;
4122;SDS011;2075;51.062;6.920;2022-12-18T05:25:50;11.27;;;6.47;;
4122;SDS011;2075;51.062;6.920;2022-12-18T05:28:37;12.20;;;6.40;;
4122;SDS011;2075;51.062;6.920;2022-12-18T05:31:22;8.93;;;5.13;;
4122;SDS011;2075;51.062;6.920;2022-12-18T05:34:09;12.50;;;6.27;;
4122;SDS011;2075;51.062;6.920;2022-12-18T05:36:54;14.67;;;7.13;;
4122;SDS011;2075;51.062;6.920;2022-12-18T05:39:40;10.67;;;6.03;;
4122;SDS011;2075;51.062;6.920;2022-12-18T05:42:25;10.23;;;5.50;;
4122;SDS011;2075;51.062;6.920;2022-12-18T05:45:10;13.90;;;6.17;;
4122;SDS011;2075;51.062;6.920;2022-12-18T05:47:56;12.40;;;6.37;;
4122;SDS011;2075;51.062;6.920;2022-12-18T05:50:44;13.37;;;7.07;;
4122;SDS011;2075;51.062;6.920;2022-12-18T05:53:31;16.63;;;7.03;;
4122;SDS011;2075;51.062;6.920;2022-12-18T05:56:16;11.80;;;6.20;;
4122;SDS011;2075;51.062;6.920;2022-12-18T05:59:03;11.97;;;6.77;;
4122;SDS011;2075;51.062;6.920;2022-12-18T06:01:48;18.40;;;7.13;;
4122;SDS011;2075;51.062;6.920;2022-12-18T06:04:34;15.07;;;6.67;;
4122;SDS011;2075;51.062;6.920;2022-12-18T06:07:20;14.30;;;7.07;;
4122;SDS011;2075;51.062;6.920;2022-12-18T06:10:06;11.67;;;6.93;;
4122;SDS011;2075;51.062;6.920;2022-12-18T06:12:52;12.43;;;6.53;;
4122;SDS011;2075;51.062;6.920;2022-12-18T06:15:37;11.97;;;6.77;;
4122;SDS011;2075;51.062;6.920;2022-12-18T06:18:22;15.53;;;6.13;;
4122;SDS011;2075;51.062;6.920;2022-12-18T06:21:08;11.57;;;7.00;;
4122;SDS011;2075;51.062;6.920;2022-12-18T06:23:55;13.57;;;6.70;;
4122;SDS011;2075;51.062;6.920;2022-12-18T06:26:40;13.33;;;6.37;;
4122;SDS011;2075;51.062;6.920;2022-12-18T06:29:26;16.27;;;7.50;;
4122;SDS011;2075;51.062;6.920;2022-12-18T06:32:11;16.50;;;7.17;;
4122;SDS011;2075;51.062;6.920;2022-12-18T06:34:57;22.00;;;8.20;;
4122;SDS011;2075;51.062;6.920;2022-12-18T06:37:43;15.20;;;7.47;;
4122;SDS011;2075;51.062;6.920;2022-12-18T06:40:29;17.43;;;7.90;;
4122;SDS011;2075;51.062;6.920;2022-12-18T06:43:15;14.60;;;7.77;;
4122;SDS011;2075;51.062;6.920;2022-12-18T06:46:01;21.80;;;6.90;;
4122;SDS011;2075;51.062;6.920;2022-12-18T06:48:47;17.60;;;7.40;;
4122;SDS011;2075;51.062;6.920;2022-12-18T06:51:33;17.47;;;8.33;;
4122;SDS011;2075;51.062;6.920;2022-12-18T06:54:19;13.37;;;7.20;;
4122;SDS011;2075;51.062;6.920;2022-12-18T06:57:05;15.23;;;7.60;;
4122;SDS011;2075;51.062;6.920;2022-12-18T06:59:51;15.13;;;7.30;;
4122;SDS011;2075;51.062;6.920;2022-12-18T07:02:37;13.23;;;7.30;;
4122;SDS011;2075;51.062;6.920;2022-12-18T07:05:22;20.77;;;8.10;;
4122;SDS011;2075;51.062;6.920;2022-12-18T07:08:07;14.67;;;6.83;;
4122;SDS011;2075;51.062;6.920;2022-12-18T07:10:53;14.93;;;7.70;;
4122;SDS011;2075;51.062;6.920;2022-12-18T07:13:40;19.77;;;7.30;;
4122;SDS011;2075;51.062;6.920;2022-12-18T07:16:25;14.20;;;7.03;;
4122;SDS011;2075;51.062;6.920;2022-12-18T07:19:12;13.97;;;6.63;;
4122;SDS011;2075;51.062;6.920;2022-12-18T07:21:57;16.00;;;7.03;;
4122;SDS011;2075;51.062;6.920;2022-12-18T07:24:42;12.83;;;7.93;;
4122;SDS011;2075;51.062;6.920;2022-12-18T07:27:28;16.57;;;7.37;;
4122;SDS011;2075;51.062;6.920;2022-12-18T07:30:15;16.43;;;7.37;;
4122;SDS011;2075;51.062;6.920;2022-12-18T07:33:00;17.93;;;7.03;;
4122;SDS011;2075;51.062;6.920;2022-12-18T07:35:45;14.20;;;8.03;;
4122;SDS011;2075;51.062;6.920;2022-12-18T07:38:31;16.93;;;8.80;;
4122;SDS011;2075;51.062;6.920;2022-12-18T07:41:23;13.37;;;7.20;;
4122;SDS011;2075;51.062;6.920;2022-12-18T07:44:09;18.67;;;7.90;;
4122;SDS011;2075;51.062;6.920;2022-12-18T07:46:56;11.67;;;7.00;;
4122;SDS011;2075;51.062;6.920;2022-12-18T07:49:41;18.53;;;8.77;;
4122;SDS011;2075;51.062;6.920;2022-12-18T07:52:26;15.57;;;7.80;;
4122;SDS011;2075;51.062;6.920;2022-12-18T07:55:12;14.97;;;7.50;;
4122;SDS011;2075;51.062;6.920;2022-12-18T07:58:00;17.73;;;8.60;;
4122;SDS011;2075;51.062;6.920;2022-12-18T08:00:45;15.90;;;8.70;;
4122;SDS011;2075;51.062;6.920;2022-12-18T08:03:32;15.87;;;8.00;;
4122;SDS011;2075;51.062;6.920;2022-12-18T08:06:18;19.00;;;8.10;;
4122;SDS011;2075;51.062;6.920;2022-12-18T08:09:03;17.87;;;7.90;;
4122;SDS011;2075;51.062;6.920;2022-12-18T08:11:49;17.50;;;8.30;;
4122;SDS011;2075;51.062;6.920;2022-12-18T08:14:34;14.47;;;7.47;;
4122;SDS011;2075;51.062;6.920;2022-12-18T08:17:20;16.38;;;7.45;;
4122;SDS011;2075;51.062;6.920;2022-12-18T08:20:10;17.43;;;8.83;;
4122;SDS011;2075;51.062;6.920;2022-12-18T08:22:58;16.13;;;8.57;;
4122;SDS011;2075;51.062;6.920;2022-12-18T08:25:44;17.60;;;7.80;;
4122;SDS011;2075;51.062;6.920;2022-12-18T08:28:30;18.13;;;7.87;;
4122;SDS011;2075;51.062;6.920;2022-12-18T08:31:15;14.80;;;6.67;;
4122;SDS011;2075;51.062;6.920;2022-12-18T08:34:01;14.27;;;7.30;;
4122;SDS011;2075;51.062;6.920;2022-12-18T08:36:49;19.00;;;8.93;;
4122;SDS011;2075;51.062;6.920;2022-12-18T08:39:35;16.03;;;7.70;;
4122;SDS011;2075;51.062;6.920;2022-12-18T08:42:21;14.20;;;7.57;;
4122;SDS011;2075;51.062;6.920;2022-12-18T08:45:24;18.03;;;9.10;;
4122;SDS011;2075;51.062;6.920;2022-12-18T08:48:11;19.00;;;8.57;;
4122;SDS011;2075;51.062;6.920;2022-12-18T08:50:58;30.47;;;8.90;;
4122;SDS011;2075;51.062;6.920;2022-12-18T08:53:45;13.00;;;7.17;;
4122;SDS011;2075;51.062;6.920;2022-12-18T08:56:32;12.43;;;7.40;;
4122;SDS011;2075;51.062;6.920;2022-12-18T08:59:17;13.13;;;6.73;;
4122;SDS011;2075;51.062;6.920;2022-12-18T09:02:04;17.23;;;7.93;;
4122;SDS011;2075;51.062;6.920;2022-12-18T09:04:49;15.17;;;7.60;;
4122;SDS011;2075;51.062;6.920;2022-12-18T09:07:35;13.97;;;7.90;;
4122;SDS011;2075;51.062;6.920;2022-12-18T09:10:26;15.27;;;7.90;;
4122;SDS011;2075;51.062;6.920;2022-12-18T09:13:12;16.10;;;7.60;;
4122;SDS011;2075;51.062;6.920;2022-12-18T09:15:59;15.37;;;7.23;;
4122;SDS011;2075;51.062;6.920;2022-12-18T09:18:44;16.33;;;7.33;;
4122;SDS011;2075;51.062;6.920;2022-12-18T09:21:31;17.80;;;7.77;;
4122;SDS011;2075;51.062;6.920;2022-12-18T09:24:18;16.40;;;7.90;;
4122;SDS011;2075;51.062;6.920;2022-12-18T09:27:12;16.10;;;7.20;;
4122;SDS011;2075;51.062;6.920;2022-12-18T09:29:58;15.73;;;7.47;;
4122;SDS011;2075;51.062;6.920;2022-12-18T09:32:46;16.40;;;7.27;;
4122;SDS011;2075;51.062;6.920;2022-12-18T09:35:35;11.40;;;7.47;;
4122;SDS011;2075;51.062;6.920;2022-12-18T09:38:24;20.57;;;9.63;;
4122;SDS011;2075;51.062;6.920;2022-12-18T09:41:15;17.57;;;8.77;;
4122;SDS011;2075;51.062;6.920;2022-12-18T09:44:19;14.83;;;7.70;;
4122;SDS011;2075;51.062;6.920;2022-12-18T09:47:09;15.33;;;8.47;;
4122;SDS011;2075;51.062;6.920;2022-12-18T09:50:01;19.07;;;8.27;;
4122;SDS011;2075;51.062;6.920;2022-12-18T09:52:51;15.20;;;8.55;;
4122;SDS011;2075;51.062;6.920;2022-12-18T09:55:40;22.57;;;9.40;;
4122;SDS011;2075;51.062;6.920;2022-12-18T09:58:29;17.37;;;8.00;;
4122;SDS011;2075;51.062;6.920;2022-12-18T10:01:21;19.63;;;8.73;;
4122;SDS011;2075;51.062;6.920;2022-12-18T10:04:14;18.30;;;8.13;;
4122;SDS011;2075;51.062;6.920;2022-12-18T10:07:05;21.23;;;8.83;;
4122;SDS011;2075;51.062;6.920;2022-12-18T10:09:58;15.90;;;8.37;;
4122;SDS011;2075;51.062;6.920;2022-12-18T10:12:51;19.80;;;8.90;;
4122;SDS011;2075;51.062;6.920;2022-12-18T10:15:48;16.63;;;8.57;;
4122;SDS011;2075;51.062;6.920;2022-12-18T10:18:52;16.83;;;7.87;;
4122;SDS011;2075;51.062;6.920;2022-12-18T10:21:48;13.90;;;7.97;;
4122;SDS011;2075;51.062;6.920;2022-12-18T10:24:42;15.80;;;8.20;;
4122;SDS011;2075;51.062;6.920;2022-12-18T10:27:34;19.13;;;7.63;;
4122;SDS011;2075;51.062;6.920;2022-12-18T10:30:21;18.20;;;7.27;;
4122;SDS011;2075;51.062;6.920;2022-12-18T10:33:08;16.50;;;8.00;;
4122;SDS011;2075;51.062;6.920;2022-12-18T10:36:01;14.13;;;7.60;;
4122;SDS011;2075;51.062;6.920;2022-12-18T10:38:47;17.90;;;8.57;;
4122;SDS011;2075;51.062;6.920;2022-12-18T10:41:32;16.60;;;8.00;;
4122;SDS011;2075;51.062;6.920;2022-12-18T10:44:20;13.53;;;7.90;;
4122;SDS011;2075;51.062;6.920;2022-12-18T10:47:11;14.87;;;7.10;;
4122;SDS011;2075;51.062;6.920;2022-12-18T10:49:59;16.60;;;8.90;;
4122;SDS011;2075;51.062;6.920;2022-12-18T10:52:55;18.52;;;9.70;;
4122;SDS011;2075;51.062;6.920;2022-12-18T10:55:44;22.53;;;8.37;;
4122;SDS011;2075;51.062;6.920;2022-12-18T10:58:32;20.77;;;9.10;;
4122;SDS011;2075;51.062;6.920;2022-12-18T11:01:19;14.60;;;8.10;;
4122;SDS011;2075;51.062;6.920;2022-12-18T11:04:07;17.00;;;7.47;;
4122;SDS011;2075;51.062;6.920;2022-12-18T11:06:55;20.90;;;9.13;;
4122;SDS011;2075;51.062;6.920;2022-12-18T11:13:11;17.90;;;9.65;;
4122;SDS011;2075;51.062;6.920;2022-12-18T11:16:17;15.53;;;9.07;;
4122;SDS011;2075;51.062;6.920;2022-12-18T11:19:09;17.20;;;8.27;;
4122;SDS011;2075;51.062;6.920;2022-12-18T11:22:17;21.63;;;9.87;;
4122;SDS011;2075;51.062;6.920;2022-12-18T11:25:17;16.73;;;8.47;;
4122;SDS011;2075;51.062;6.920;2022-12-18T11:28:04;16.43;;;9.17;;
4122;SDS011;2075;51.062;6.920;2022-12-18T11:34:17;16.07;;;8.53;;
4122;SDS011;2075;51.062;6.920;2022-12-18T11:37:08;12.00;;;6.80;;
4122;SDS011;2075;51.062;6.920;2022-12-18T11:39:57;18.30;;;8.17;;
4122;SDS011;2075;51.062;6.920;2022-12-18T11:42:50;20.87;;;8.60;;
4122;SDS011;2075;51.062;6.920;2022-12-18T11:45:40;16.73;;;7.97;;
4122;SDS011;2075;51.062;6.920;2022-12-18T11:48:32;18.73;;;8.57;;
4122;SDS011;2075;51.062;6.920;2022-12-18T11:51:30;19.73;;;9.47;;
4122;SDS011;2075;51.062;6.920;2022-12-18T11:54:19;25.60;;;9.83;;
4122;SDS011;2075;51.062;6.920;2022-12-18T11:57:07;21.20;;;8.40;;
4122;SDS011;2075;51.062;6.920;2022-12-18T12:00:04;19.73;;;9.87;;
4122;SDS011;2075;51.062;6.920;2022-12-18T12:06:11;16.73;;;8.73;;
4122;SDS011;2075;51.062;6.920;2022-12-18T12:09:08;19.93;;;10.53;;
4122;SDS011;2075;51.062;6.920;2022-12-18T12:12:05;18.23;;;8.27;;
4122;SDS011;2075;51.062;6.920;2022-12-18T12:15:10;25.40;;;9.97;;
4122;SDS011;2075;51.062;6.920;2022-12-18T12:18:05;18.50;;;9.17;;
4122;SDS011;2075;51.062;6.920;2022-12-18T12:21:02;16.10;;;8.87;;
4122;SDS011;2075;51.062;6.920;2022-12-18T12:23:56;18.83;;;8.70;;
4122;SDS011;2075;51.062;6.920;2022-12-18T12:26:52;18.17;;;9.80;;
4122;SDS011;2075;51.062;6.920;2022-12-18T12:29:50;18.93;;;9.63;;
4122;SDS011;2075;51.062;6.920;2022-12-18T12:32:52;17.87;;;10.17;;
4122;SDS011;2075;51.062;6.920;2022-12-18T12:35:57;21.97;;;9.37;;
4122;SDS011;2075;51.062;6.920;2022-12-18T12:38:54;18.90;;;8.60;;
4122;SDS011;2075;51.062;6.920;2022-12-18T12:41:43;19.53;;;9.00;;
4122;SDS011;2075;51.062;6.920;2022-12-18T12:44:50;23.70;;;10.90;;
4122;SDS011;2075;51.062;6.920;2022-12-18T12:47:40;21.30;;;9.70;;
4122;SDS011;2075;51.062;6.920;2022-12-18T12:50:28;20.57;;;10.87;;
4122;SDS011;2075;51.062;6.920;2022-12-18T12:53:21;18.27;;;9.90;;
4122;SDS011;2075;51.062;6.920;2022-12-18T12:56:12;22.37;;;11.20;;
4122;SDS011;2075;51.062;6.920;2022-12-18T12:59:02;19.00;;;9.83;;
4122;SDS011;2075;51.062;6.920;2022-12-18T13:01:59;23.60;;;10.77;;
4122;SDS011;2075;51.062;6.920;2022-12-18T13:04:52;18.83;;;9.90;;
4122;SDS011;2075;51.062;6.920;2022-12-18T13:07:47;18.10;;;9.63;;
4122;SDS011;2075;51.062;6.920;2022-12-18T13:10:37;22.57;;;9.67;;
4122;SDS011;2075;51.062;6.920;2022-12-18T13:13:24;21.90;;;10.37;;
4122;SDS011;2075;51.062;6.920;2022-12-18T13:16:09;26.30;;;11.20;;
4122;SDS011;2075;51.062;6.920;2022-12-18T13:18:55;19.97;;;9.00;;
4122;SDS011;2075;51.062;6.920;2022-12-18T13:21:42;18.10;;;9.20;;
4122;SDS011;2075;51.062;6.920;2022-12-18T13:24:39;22.00;;;10.60;;
4122;SDS011;2075;51.062;6.920;2022-12-18T13:27:47;21.20;;;11.10;;
4122;SDS011;2075;51.062;6.920;2022-12-18T13:30:48;21.90;;;10.80;;
4122;SDS011;2075;51.062;6.920;2022-12-18T13:33:40;26.73;;;11.63;;
4122;SDS011;2075;51.062;6.920;2022-12-18T13:36:29;24.77;;;10.70;;
4122;SDS011;2075;51.062;6.920;2022-12-18T13:45:45;31.67;;;11.63;;
4122;SDS011;2075;51.062;6.920;2022-12-18T13:48:33;26.90;;;12.87;;
4122;SDS011;2075;51.062;6.920;2022-12-18T13:51:21;20.70;;;10.30;;
4122;SDS011;2075;51.062;6.920;2022-12-18T13:54:13;20.70;;;9.70;;
4122;SDS011;2075;51.062;6.920;2022-12-18T13:57:05;17.70;;;9.77;;
4122;SDS011;2075;51.062;6.920;2022-12-18T14:00:25;36.50;;;11.93;;
4122;SDS011;2075;51.062;6.920;2022-12-18T14:03:17;24.20;;;12.87;;
4122;SDS011;2075;51.062;6.920;2022-12-18T14:06:05;26.17;;;11.47;;
4122;SDS011;2075;51.062;6.920;2022-12-18T14:08:53;26.43;;;13.07;;
4122;SDS011;2075;51.062;6.920;2022-12-18T14:11:38;26.97;;;12.00;;
4122;SDS011;2075;51.062;6.920;2022-12-18T14:14:24;24.47;;;11.90;;
4122;SDS011;2075;51.062;6.920;2022-12-18T14:17:11;25.47;;;11.87;;
4122;SDS011;2075;51.062;6.920;2022-12-18T14:19:58;21.53;;;10.23;;
4122;SDS011;2075;51.062;6.920;2022-12-18T14:22:44;22.80;;;11.00;;
4122;SDS011;2075;51.062;6.920;2022-12-18T14:25:31;24.67;;;11.10;;
4122;SDS011;2075;51.062;6.920;2022-12-18T14:28:16;27.80;;;12.23;;
4122;SDS011;2075;51.062;6.920;2022-12-18T14:31:15;23.87;;;11.13;;
4122;SDS011;2075;51.062;6.920;2022-12-18T14:34:04;25.70;;;11.77;;
4122;SDS011;2075;51.062;6.920;2022-12-18T14:36:51;26.23;;;13.47;;
4122;SDS011;2075;51.062;6.920;2022-12-18T14:39:37;22.43;;;11.10;;
4122;SDS011;2075;51.062;6.920;2022-12-18T14:42:24;28.30;;;12.50;;
4122;SDS011;2075;51.062;6.920;2022-12-18T14:45:31;24.23;;;10.80;;
4122;SDS011;2075;51.062;6.920;2022-12-18T14:48:31;32.07;;;13.07;;
4122;SDS011;2075;51.062;6.920;2022-12-18T14:51:22;22.03;;;10.53;;
4122;SDS011;2075;51.062;6.920;2022-12-18T14:54:15;32.40;;;13.33;;
4122;SDS011;2075;51.062;6.920;2022-12-18T14:57:03;23.20;;;11.80;;
4122;SDS011;2075;51.062;6.920;2022-12-18T14:59:50;28.20;;;11.93;;
4122;SDS011;2075;51.062;6.920;2022-12-18T15:02:36;24.70;;;12.10;;
4122;SDS011;2075;51.062;6.920;2022-12-18T15:05:25;26.07;;;11.90;;
4122;SDS011;2075;51.062;6.920;2022-12-18T15:08:30;27.13;;;11.70;;
4122;SDS011;2075;51.062;6.920;2022-12-18T15:11:25;24.10;;;12.30;;
4122;SDS011;2075;51.062;6.920;2022-12-18T15:17:24;28.17;;;12.63;;
4122;SDS011;2075;51.062;6.920;2022-12-18T15:20:11;27.07;;;13.07;;
4122;SDS011;2075;51.062;6.920;2022-12-18T15:22:56;28.63;;;11.50;;
4122;SDS011;2075;51.062;6.920;2022-12-18T15:25:43;27.67;;;12.63;;
4122;SDS011;2075;51.062;6.920;2022-12-18T15:28:31;28.33;;;12.70;;
4122;SDS011;2075;51.062;6.920;2022-12-18T15:31:24;24.97;;;10.87;;
4122;SDS011;2075;51.062;6.920;2022-12-18T15:34:18;28.23;;;12.37;;
4122;SDS011;2075;51.062;6.920;2022-12-18T15:37:06;31.73;;;12.40;;
4122;SDS011;2075;51.062;6.920;2022-12-18T15:39:52;23.00;;;12.43;;
4122;SDS011;2075;51.062;6.920;2022-12-18T15:42:39;35.00;;;12.03;;
4122;SDS011;2075;51.062;6.920;2022-12-18T15:45:45;28.77;;;13.70;;
4122;SDS011;2075;51.062;6.920;2022-12-18T15:48:31;27.97;;;12.50;;
4122;SDS011;2075;51.062;6.920;2022-12-18T15:51:19;28.80;;;12.60;;
4122;SDS011;2075;51.062;6.920;2022-12-18T15:54:09;36.63;;;16.83;;
4122;SDS011;2075;51.062;6.920;2022-12-18T15:57:00;24.57;;;12.07;;
4122;SDS011;2075;51.062;6.920;2022-12-18T16:00:05;28.58;;;15.23;;
4122;SDS011;2075;51.062;6.920;2022-12-18T16:02:51;30.90;;;13.97;;
4122;SDS011;2075;51.062;6.920;2022-12-18T16:05:36;29.50;;;13.43;;
4122;SDS011;2075;51.062;6.920;2022-12-18T16:08:21;26.73;;;13.03;;
4122;SDS011;2075;51.062;6.920;2022-12-18T16:11:08;34.72;;;16.67;;
4122;SDS011;2075;51.062;6.920;2022-12-18T16:14:21;31.60;;;15.43;;
4122;SDS011;2075;51.062;6.920;2022-12-18T16:17:11;24.97;;;13.13;;
4122;SDS011;2075;51.062;6.920;2022-12-18T16:19:57;35.80;;;14.37;;
4122;SDS011;2075;51.062;6.920;2022-12-18T16:22:43;28.33;;;14.17;;
4122;SDS011;2075;51.062;6.920;2022-12-18T16:25:29;31.87;;;13.90;;
4122;SDS011;2075;51.062;6.920;2022-12-18T16:28:15;34.30;;;15.67;;
4122;SDS011;2075;51.062;6.920;2022-12-18T16:31:01;25.93;;;12.60;;
4122;SDS011;2075;51.062;6.920;2022-12-18T16:33:48;30.47;;;13.20;;
4122;SDS011;2075;51.062;6.920;2022-12-18T16:36:33;29.10;;;14.10;;
4122;SDS011;2075;51.062;6.920;2022-12-18T16:39:19;34.00;;;14.80;;
4122;SDS011;2075;51.062;6.920;2022-12-18T16:42:06;37.90;;;18.27;;
4122;SDS011;2075;51.062;6.920;2022-12-18T16:44:56;37.00;;;16.30;;
4122;SDS011;2075;51.062;6.920;2022-12-18T16:47:41;34.57;;;14.77;;
4122;SDS011;2075;51.062;6.920;2022-12-18T16:50:29;35.43;;;15.70;;
4122;SDS011;2075;51.062;6.920;2022-12-18T16:53:14;42.20;;;16.40;;
4122;SDS011;2075;51.062;6.920;2022-12-18T16:55:59;34.27;;;15.17;;
4122;SDS011;2075;51.062;6.920;2022-12-18T16:58:49;37.73;;;17.70;;
4122;SDS011;2075;51.062;6.920;2022-12-18T17:01:35;36.63;;;14.97;;
4122;SDS011;2075;51.062;6.920;2022-12-18T17:04:20;29.93;;;14.27;;
4122;SDS011;2075;51.062;6.920;2022-12-18T17:07:08;41.10;;;14.87;;
4122;SDS011;2075;51.062;6.920;2022-12-18T17:09:54;33.67;;;13.93;;
4122;SDS011;2075;51.062;6.920;2022-12-18T17:12:39;36.17;;;16.10;;
4122;SDS011;2075;51.062;6.920;2022-12-18T17:15:25;33.60;;;15.23;;
4122;SDS011;2075;51.062;6.920;2022-12-18T17:18:11;34.43;;;14.87;;
4122;SDS011;2075;51.062;6.920;2022-12-18T17:20:57;29.23;;;13.80;;
4122;SDS011;2075;51.062;6.920;2022-12-18T17:23:45;32.83;;;15.70;;
4122;SDS011;2075;51.062;6.920;2022-12-18T17:26:31;35.30;;;14.63;;
4122;SDS011;2075;51.062;6.920;2022-12-18T17:29:17;34.37;;;14.20;;
4122;SDS011;2075;51.062;6.920;2022-12-18T17:32:04;42.35;;;21.48;;